createdAt,value
2022-09-01T00:00:50.308Z,17.88
2022-09-01T00:03:23.543Z,17.89
2022-09-01T00:05:57.127Z,17.87
2022-09-01T00:08:25.944Z,17.84
2022-09-01T00:10:54.684Z,17.83
2022-09-01T00:13:23.023Z,17.79
2022-09-01T00:15:52.749Z,17.75
2022-09-01T00:18:21.254Z,17.71
2022-09-01T00:20:49.592Z,17.66
2022-09-01T00:23:17.969Z,17.60
2022-09-01T00:25:46.635Z,17.58
2022-09-01T00:28:14.987Z,17.53
2022-09-01T00:30:43.667Z,17.49
2022-09-01T00:33:13.466Z,17.48
2022-09-01T00:35:43.053Z,17.44
2022-09-01T00:38:11.512Z,17.40
2022-09-01T00:40:40.118Z,17.36
2022-09-01T00:43:24.337Z,17.30
2022-09-01T00:45:52.828Z,17.28
2022-09-01T00:48:23.539Z,17.24
2022-09-01T00:50:54.537Z,17.21
2022-09-01T00:53:23.228Z,17.17
2022-09-01T00:55:51.928Z,17.16
2022-09-01T00:58:20.781Z,17.11
2022-09-01T01:00:52.973Z,17.08
2022-09-01T01:03:24.139Z,17.05
2022-09-01T01:05:58.033Z,17.02
2022-09-01T01:08:33.901Z,16.97
2022-09-01T01:11:03.836Z,16.95
2022-09-01T01:13:51.200Z,16.89
2022-09-01T01:16:20.803Z,16.86
2022-09-01T01:18:50.979Z,16.84
2022-09-01T01:21:43.161Z,16.80
2022-09-01T01:24:24.734Z,16.75
2022-09-01T01:26:53.787Z,16.73
2022-09-01T01:29:22.356Z,16.71
2022-09-01T01:31:53.936Z,16.69
2022-09-01T01:34:23.333Z,16.68
2022-09-01T01:36:53.255Z,16.65
2022-09-01T01:39:26.834Z,16.64
2022-09-01T01:41:59.184Z,16.63
2022-09-01T01:44:29.489Z,16.62
2022-09-01T01:47:08.428Z,16.60
2022-09-01T01:49:39.992Z,16.59
2022-09-01T01:52:08.703Z,16.57
2022-09-01T01:54:38.893Z,16.56
2022-09-01T01:57:08.071Z,16.54
2022-09-01T01:59:38.685Z,16.53
2022-09-01T02:02:08.605Z,16.51
2022-09-01T02:04:40.024Z,16.48
2022-09-01T02:07:13.587Z,16.47
2022-09-01T02:09:48.165Z,16.46
2022-09-01T02:12:19.623Z,16.43
2022-09-01T02:14:48.554Z,16.41
2022-09-01T02:17:18.020Z,16.40
2022-09-01T02:19:47.302Z,16.37
2022-09-01T02:22:15.629Z,16.34
2022-09-01T02:24:49.110Z,16.32
2022-09-01T02:27:25.823Z,16.29
2022-09-01T02:29:55.615Z,16.27
2022-09-01T02:32:24.848Z,16.26
2022-09-01T02:34:56.985Z,16.24
2022-09-01T02:37:25.658Z,16.24
2022-09-01T02:39:57.594Z,16.22
2022-09-01T02:42:27.652Z,16.20
2022-09-01T02:44:56.143Z,16.19
2022-09-01T02:47:26.985Z,16.17
2022-09-01T02:49:55.635Z,16.17
2022-09-01T02:52:23.891Z,16.15
2022-09-01T02:54:52.489Z,16.14
2022-09-01T02:57:24.813Z,16.12
2022-09-01T02:59:53.367Z,16.12
2022-09-01T03:02:23.052Z,16.10
2022-09-01T03:04:52.834Z,16.08
2022-09-01T03:07:21.789Z,16.06
2022-09-01T03:09:50.371Z,16.05
2022-09-01T03:12:19.886Z,16.03
2022-09-01T03:14:49.605Z,16.01
2022-09-01T03:17:17.908Z,15.99
2022-09-01T03:19:46.737Z,15.97
2022-09-01T03:22:15.151Z,15.95
2022-09-01T03:24:43.540Z,15.94
2022-09-01T03:27:12.382Z,15.92
2022-09-01T03:29:41.362Z,15.90
2022-09-01T03:32:11.509Z,15.90
2022-09-01T03:34:40.258Z,15.88
2022-09-01T03:37:09.691Z,15.88
2022-09-01T03:39:38.079Z,15.87
2022-09-01T03:42:08.788Z,15.86
2022-09-01T03:44:40.292Z,15.84
2022-09-01T03:47:15.190Z,15.83
2022-09-01T03:49:45.452Z,15.79
2022-09-01T03:52:14.687Z,15.81
2022-09-01T03:54:43.798Z,15.81
2022-09-01T03:57:13.799Z,15.80
2022-09-01T03:59:45.146Z,15.81
2022-09-01T04:02:16.013Z,15.81
2022-09-01T04:04:44.809Z,15.80
2022-09-01T04:07:13.593Z,15.80
2022-09-01T04:09:47.404Z,15.79
2022-09-01T04:12:15.790Z,15.77
2022-09-01T04:14:48.490Z,15.77
2022-09-01T04:17:35.704Z,15.75
2022-09-01T04:20:09.324Z,15.71
2022-09-01T04:22:38.802Z,15.69
2022-09-01T04:25:08.920Z,15.67
2022-09-01T04:27:40.399Z,15.64
2022-09-01T04:30:11.971Z,15.62
2022-09-01T04:32:46.765Z,15.58
2022-09-01T04:35:17.011Z,15.58
2022-09-01T04:37:48.461Z,15.56
2022-09-01T04:40:17.604Z,15.53
2022-09-01T04:42:46.551Z,15.52
2022-09-01T04:45:20.464Z,15.51
2022-09-01T04:47:51.002Z,15.51
2022-09-01T04:50:22.151Z,15.51
2022-09-01T04:53:12.022Z,15.49
2022-09-01T04:55:44.427Z,15.51
2022-09-01T04:58:17.707Z,15.54
2022-09-01T05:00:49.624Z,15.59
2022-09-01T05:03:24.061Z,15.62
2022-09-01T05:06:06.736Z,15.64
2022-09-01T05:08:36.380Z,15.65
2022-09-01T05:11:09.280Z,15.66
2022-09-01T05:13:45.355Z,15.68
2022-09-01T05:16:22.795Z,15.71
2022-09-01T05:18:57.850Z,15.77
2022-09-01T05:21:30.652Z,15.82
2022-09-01T05:24:04.970Z,15.87
2022-09-01T05:26:34.843Z,15.92
2022-09-01T05:29:10.507Z,15.98
2022-09-01T05:31:39.045Z,16.03
2022-09-01T05:34:09.621Z,16.08
2022-09-01T05:36:43.937Z,16.09
2022-09-01T05:39:13.372Z,16.12
2022-09-01T05:41:42.524Z,16.16
2022-09-01T05:44:11.514Z,16.23
2022-09-01T05:46:42.561Z,16.28
2022-09-01T05:49:18.622Z,16.31
2022-09-01T05:51:52.166Z,16.35
2022-09-01T05:54:27.214Z,16.39
2022-09-01T05:57:12.695Z,16.43
2022-09-01T05:59:53.494Z,16.47
2022-09-01T06:02:27.145Z,16.51
2022-09-01T06:04:59.875Z,16.53
2022-09-01T06:07:33.859Z,16.57
2022-09-01T06:10:03.210Z,16.58
2022-09-01T06:12:32.067Z,16.61
2022-09-01T06:15:01.327Z,16.66
2022-09-01T06:17:30.901Z,16.69
2022-09-01T06:20:10.643Z,16.78
2022-09-01T06:22:41.373Z,16.87
2022-09-01T06:25:11.669Z,16.97
2022-09-01T06:27:44.767Z,17.11
2022-09-01T06:30:23.064Z,17.21
2022-09-01T06:33:09.255Z,17.29
2022-09-01T06:35:40.482Z,17.40
2022-09-01T06:38:10.461Z,17.47
2022-09-01T06:40:42.639Z,17.56
2022-09-01T06:43:17.217Z,17.66
2022-09-01T06:45:54.623Z,17.71
2022-09-01T06:48:25.225Z,17.82
2022-09-01T06:51:21.305Z,17.91
2022-09-01T06:53:59.260Z,17.99
2022-09-01T06:56:33.978Z,18.00
2022-09-01T06:59:15.535Z,18.10
2022-09-01T07:01:48.963Z,18.17
2022-09-01T07:04:20.238Z,18.24
2022-09-01T07:10:21.095Z,18.51
2022-09-01T07:13:08.959Z,18.64
2022-09-01T07:18:31.809Z,18.79
2022-09-01T07:21:35.953Z,18.90
2022-09-01T07:24:11.171Z,18.97
2022-09-01T07:26:47.149Z,18.99
2022-09-01T07:29:17.416Z,19.04
2022-09-01T07:31:50.248Z,19.07
2022-09-01T07:45:59.758Z,19.23
2022-09-01T07:49:02.677Z,19.27
2022-09-01T07:51:38.125Z,19.27
2022-09-01T07:54:08.749Z,19.30
2022-09-01T07:56:40.595Z,19.37
2022-09-01T07:59:14.771Z,19.45
2022-09-01T08:02:05.992Z,19.51
2022-09-01T08:04:35.140Z,19.60
2022-09-01T08:07:05.697Z,19.67
2022-09-01T08:09:38.360Z,19.77
2022-09-01T08:12:14.432Z,19.94
2022-09-01T08:17:51.491Z,20.71
2022-09-01T08:20:21.252Z,21.05
2022-09-01T08:22:54.547Z,21.54
2022-09-01T08:25:26.177Z,21.99
2022-09-01T08:28:00.718Z,22.39
2022-09-01T08:30:30.704Z,22.48
2022-09-01T08:33:10.188Z,22.50
2022-09-01T08:35:41.426Z,22.50
2022-09-01T08:38:10.958Z,22.58
2022-09-01T08:40:41.949Z,22.84
2022-09-01T08:43:23.216Z,22.87
2022-09-01T08:45:55.974Z,22.96
2022-09-01T08:49:23.629Z,23.59
2022-09-01T08:51:32.553Z,24.59
2022-09-01T08:54:11.943Z,25.48
2022-09-01T08:56:41.871Z,26.26
2022-09-01T08:59:15.038Z,26.90
2022-09-01T09:02:21.478Z,27.53
2022-09-01T09:05:22.646Z,28.03
2022-09-01T09:08:29.595Z,28.54
2022-09-01T09:11:05.688Z,28.91
2022-09-01T09:13:49.052Z,29.09
2022-09-01T09:16:25.197Z,29.25
2022-09-01T09:18:58.286Z,29.30
2022-09-01T09:21:30.768Z,29.46
2022-09-01T09:24:07.985Z,29.80
2022-09-01T09:26:44.666Z,29.97
2022-09-01T09:29:13.357Z,30.18
2022-09-01T09:31:46.120Z,30.30
2022-09-01T09:34:32.475Z,30.23
2022-09-01T09:37:18.378Z,30.20
2022-09-01T09:40:01.944Z,30.03
2022-09-01T09:42:34.911Z,30.28
2022-09-01T09:45:06.304Z,29.95
2022-09-01T09:47:44.624Z,29.18
2022-09-01T09:50:24.382Z,28.72
2022-09-01T09:52:55.681Z,28.25
2022-09-01T09:55:28.303Z,27.76
2022-09-01T09:58:01.562Z,27.39
2022-09-01T10:00:33.988Z,27.01
2022-09-01T10:03:10.149Z,26.71
2022-09-01T10:05:45.641Z,26.44
2022-09-01T10:08:37.388Z,26.25
2022-09-01T10:11:08.568Z,26.15
2022-09-01T10:13:37.708Z,26.04
2022-09-01T10:16:14.327Z,26.09
2022-09-01T10:18:46.212Z,26.51
2022-09-01T10:21:18.419Z,26.84
2022-09-01T10:23:46.744Z,27.05
2022-09-01T10:26:23.915Z,27.16
2022-09-01T10:28:59.856Z,27.11
2022-09-01T10:31:32.391Z,27.01
2022-09-01T10:34:05.359Z,26.92
2022-09-01T10:36:37.420Z,26.77
2022-09-01T10:39:11.418Z,26.67
2022-09-01T10:42:00.453Z,26.75
2022-09-01T10:44:34.248Z,27.17
2022-09-01T10:47:13.623Z,27.70
2022-09-01T10:50:07.177Z,27.85
2022-09-01T10:53:00.754Z,27.88
2022-09-01T10:55:48.924Z,27.94
2022-09-01T11:02:28.797Z,27.94
2022-09-01T11:05:17.805Z,27.84
2022-09-01T11:08:14.689Z,27.66
2022-09-01T11:10:55.802Z,27.44
2022-09-01T11:13:49.022Z,27.53
2022-09-01T11:16:50.842Z,28.35
2022-09-01T11:19:45.630Z,28.64
2022-09-01T11:22:34.888Z,28.42
2022-09-01T11:25:39.542Z,28.93
2022-09-01T11:28:44.097Z,29.73
2022-09-01T11:31:26.223Z,30.32
2022-09-01T11:34:05.486Z,30.87
2022-09-01T11:36:37.665Z,30.83
2022-09-01T11:39:30.896Z,30.44
2022-09-01T11:42:05.562Z,30.28
2022-09-01T11:44:40.621Z,30.02
2022-09-01T11:47:17.070Z,30.01
2022-09-01T11:49:53.655Z,29.73
2022-09-01T11:52:26.364Z,29.61
2022-09-01T11:54:55.753Z,29.41
2022-09-01T11:57:28.967Z,29.09
2022-09-01T12:00:01.078Z,28.77
2022-09-01T12:02:33.527Z,28.56
2022-09-01T12:05:28.231Z,28.42
2022-09-01T12:07:57.446Z,28.51
2022-09-01T12:10:34.446Z,28.53
2022-09-01T12:13:08.453Z,28.79
2022-09-01T12:16:00.461Z,29.01
2022-09-01T12:18:32.997Z,28.94
2022-09-01T12:21:04.311Z,28.78
2022-09-01T12:23:36.175Z,29.01
2022-09-01T12:26:08.545Z,29.28
2022-09-01T12:28:41.605Z,29.56
2022-09-01T12:31:19.848Z,29.38
2022-09-01T12:33:49.505Z,29.66
2022-09-01T12:36:27.818Z,30.33
2022-09-01T12:38:57.513Z,30.93
2022-09-01T12:41:36.114Z,30.92
2022-09-01T12:44:31.565Z,30.74
2022-09-01T12:47:04.703Z,30.83
2022-09-01T12:49:47.807Z,31.13
2022-09-01T12:52:27.285Z,31.64
2022-09-01T12:55:47.402Z,31.70
2022-09-01T12:58:05.684Z,31.94
2022-09-01T13:00:36.510Z,32.18
2022-09-01T13:03:15.557Z,32.26
2022-09-01T13:05:47.036Z,32.37
2022-09-01T13:08:19.013Z,32.06
2022-09-01T13:10:53.256Z,31.67
2022-09-01T13:13:24.556Z,31.30
2022-09-01T13:15:57.042Z,31.48
2022-09-01T13:18:28.418Z,31.99
2022-09-01T13:20:58.933Z,32.55
2022-09-01T13:23:27.366Z,32.82
2022-09-01T13:25:55.684Z,33.20
2022-09-01T13:36:48.243Z,33.70
2022-09-01T13:39:18.930Z,33.82
2022-09-01T13:41:47.483Z,33.98
2022-09-01T13:44:17.242Z,34.11
2022-09-01T13:47:28.639Z,33.82
2022-09-01T13:52:24.540Z,32.90
2022-09-01T13:54:52.898Z,32.60
2022-09-01T13:57:21.255Z,32.36
2022-09-01T13:59:49.580Z,32.19
2022-09-01T14:02:18.172Z,32.05
2022-09-01T14:04:48.927Z,31.91
2022-09-01T14:07:18.847Z,32.19
2022-09-01T14:09:47.356Z,32.93
2022-09-01T14:12:15.679Z,33.57
2022-09-01T14:17:32.305Z,34.13
2022-09-01T14:20:02.006Z,34.06
2022-09-01T14:22:31.059Z,33.79
2022-09-01T14:25:00.993Z,33.21
2022-09-01T14:27:29.375Z,32.56
2022-09-01T14:29:57.715Z,32.02
2022-09-01T14:32:27.396Z,31.50
2022-09-01T14:34:56.083Z,30.93
2022-09-01T14:37:26.072Z,30.39
2022-09-01T14:39:57.684Z,29.94
2022-09-01T14:42:28.973Z,29.57
2022-09-01T14:44:57.637Z,29.29
2022-09-01T14:47:26.042Z,29.20
2022-09-01T14:49:54.967Z,29.12
2022-09-01T14:52:23.412Z,28.96
2022-09-01T14:54:53.535Z,28.81
2022-09-01T14:57:36.487Z,28.68
2022-09-01T15:00:12.001Z,28.59
2022-09-01T15:02:43.078Z,28.58
2022-09-01T15:05:13.515Z,28.56
2022-09-01T15:07:43.155Z,28.62
2022-09-01T15:10:23.414Z,28.99
2022-09-01T15:12:55.973Z,29.39
2022-09-01T15:15:25.426Z,29.73
2022-09-01T15:17:54.148Z,30.30
2022-09-01T15:20:41.159Z,30.96
2022-09-01T15:23:10.057Z,31.62
2022-09-01T15:25:40.133Z,32.09
2022-09-01T15:28:09.130Z,32.47
2022-09-01T15:30:38.743Z,32.72
2022-09-01T15:33:13.345Z,32.89
2022-09-01T15:35:44.025Z,32.44
2022-09-01T15:38:17.112Z,32.21
2022-09-01T15:40:57.823Z,32.24
2022-09-01T15:43:28.982Z,32.24
2022-09-01T15:45:59.133Z,32.37
2022-09-01T15:48:29.461Z,32.33
2022-09-01T15:51:27.645Z,32.12
2022-09-01T15:53:59.967Z,31.80
2022-09-01T15:56:31.877Z,31.73
2022-09-01T15:59:01.822Z,31.87
2022-09-01T16:01:33.798Z,32.14
2022-09-01T16:04:03.304Z,32.18
2022-09-01T16:06:32.980Z,31.72
2022-09-01T16:09:01.400Z,31.44
2022-09-01T16:11:31.344Z,31.50
2022-09-01T16:14:01.286Z,31.73
2022-09-01T16:16:45.707Z,31.83
2022-09-01T16:19:34.314Z,31.77
2022-09-01T16:22:14.426Z,31.75
2022-09-01T16:24:45.956Z,31.69
2022-09-01T16:27:20.023Z,31.26
2022-09-01T16:29:51.797Z,30.80
2022-09-01T16:32:23.214Z,30.30
2022-09-01T16:34:53.211Z,29.79
2022-09-01T16:37:42.600Z,29.32
2022-09-01T16:40:29.844Z,28.87
2022-09-01T16:43:09.432Z,28.49
2022-09-01T16:45:48.291Z,28.15
2022-09-01T16:48:24.061Z,27.88
2022-09-01T16:51:03.364Z,27.60
2022-09-01T16:53:52.382Z,27.39
2022-09-01T16:56:31.328Z,27.28
2022-09-01T17:01:55.944Z,26.94
2022-09-01T17:04:35.532Z,26.79
2022-09-01T17:07:10.397Z,26.66
2022-09-01T17:09:42.516Z,26.52
2022-09-01T17:12:30.799Z,26.36
2022-09-01T17:15:10.046Z,26.25
2022-09-01T17:17:45.520Z,26.13
2022-09-01T17:20:16.254Z,26.04
2022-09-01T17:22:52.148Z,25.93
2022-09-01T17:25:32.682Z,25.83
2022-09-01T17:28:06.994Z,25.75
2022-09-01T17:30:47.013Z,25.66
2022-09-01T17:33:26.634Z,25.60
2022-09-01T17:36:18.658Z,25.50
2022-09-01T17:39:01.264Z,25.43
2022-09-01T17:41:40.634Z,25.34
2022-09-01T17:44:21.724Z,25.25
2022-09-01T17:46:59.261Z,25.17
2022-09-01T17:49:38.388Z,25.09
2022-09-01T17:52:16.044Z,25.01
2022-09-01T17:54:54.820Z,24.96
2022-09-01T17:57:33.198Z,24.91
2022-09-01T18:00:07.989Z,24.85
2022-09-01T18:03:15.154Z,24.77
2022-09-01T18:05:48.685Z,24.70
2022-09-01T18:08:30.689Z,24.63
2022-09-01T18:11:02.433Z,24.55
2022-09-01T18:13:52.759Z,24.52
2022-09-01T18:16:25.575Z,24.46
2022-09-01T18:18:58.355Z,24.37
2022-09-01T18:21:33.408Z,24.28
2022-09-01T18:24:15.077Z,24.19
2022-09-01T18:26:48.049Z,24.12
2022-09-01T18:29:17.507Z,24.04
2022-09-01T18:32:04.932Z,23.95
2022-09-01T18:34:56.761Z,23.90
2022-09-01T18:37:33.319Z,23.83
2022-09-01T18:40:14.100Z,23.75
2022-09-01T18:42:50.037Z,23.68
2022-09-01T18:45:33.108Z,23.58
2022-09-01T18:48:13.437Z,23.50
2022-09-01T18:50:54.437Z,23.41
2022-09-01T18:53:35.908Z,23.34
2022-09-01T18:56:17.197Z,23.24
2022-09-01T18:59:05.379Z,23.13
2022-09-01T19:01:36.849Z,23.03
2022-09-01T19:04:17.992Z,22.95
2022-09-01T19:07:01.096Z,22.85
2022-09-01T19:09:34.520Z,22.77
2022-09-01T19:12:17.081Z,22.71
2022-09-01T19:14:56.569Z,22.62
2022-09-01T19:18:05.045Z,22.51
2022-09-01T19:20:44.661Z,22.46
2022-09-01T19:23:20.025Z,22.39
2022-09-01T19:25:49.479Z,22.30
2022-09-01T19:28:25.216Z,22.22
2022-09-01T19:31:03.402Z,22.16
2022-09-01T19:33:39.378Z,22.09
2022-09-01T19:36:12.887Z,22.05
2022-09-01T19:38:42.776Z,22.00
2022-09-01T19:41:19.436Z,21.96
2022-09-01T19:43:53.464Z,21.91
2022-09-01T19:46:31.838Z,21.83
2022-09-01T19:49:10.632Z,21.80
2022-09-01T19:51:50.523Z,21.76
2022-09-01T19:54:30.730Z,21.71
2022-09-01T19:57:09.547Z,21.66
2022-09-01T19:59:51.933Z,21.62
2022-09-01T20:02:30.026Z,21.58
2022-09-01T20:05:10.426Z,21.55
2022-09-01T20:07:45.378Z,21.52
2022-09-01T20:10:34.361Z,21.50
2022-09-01T20:13:25.789Z,21.47
2022-09-01T20:16:02.253Z,21.46
2022-09-01T20:18:37.331Z,21.43
2022-09-01T20:21:19.003Z,21.39
2022-09-01T20:23:56.808Z,21.35
2022-09-01T20:26:36.003Z,21.32
2022-09-01T20:29:15.407Z,21.28
2022-09-01T20:31:50.753Z,21.25
2022-09-01T20:34:30.223Z,21.20
2022-09-01T20:37:07.169Z,21.17
2022-09-01T20:40:01.703Z,21.14
2022-09-01T20:42:43.530Z,21.11
2022-09-01T20:45:17.552Z,21.09
2022-09-01T20:47:51.327Z,21.07
2022-09-01T20:50:24.368Z,21.05
2022-09-01T20:53:15.198Z,21.04
2022-09-01T20:55:53.394Z,21.02
2022-09-01T20:58:34.434Z,21.02
2022-09-01T21:01:18.019Z,21.00
2022-09-01T21:04:02.030Z,20.99
2022-09-01T21:06:49.497Z,20.97
2022-09-01T21:09:29.662Z,20.98
2022-09-01T21:12:07.730Z,20.96
2022-09-01T21:15:00.867Z,20.96
2022-09-01T21:17:48.583Z,20.97
2022-09-01T21:20:31.229Z,20.97
2022-09-01T21:23:01.239Z,20.97
2022-09-01T21:25:32.125Z,20.94
2022-09-01T21:28:03.688Z,20.92
2022-09-01T21:30:35.883Z,20.90
2022-09-01T21:33:05.018Z,20.89
2022-09-01T21:35:33.623Z,20.87
2022-09-01T21:38:01.986Z,20.84
2022-09-01T21:40:30.897Z,20.83
2022-09-01T21:43:03.808Z,20.80
2022-09-01T21:45:34.734Z,20.76
2022-09-01T21:48:04.120Z,20.74
2022-09-01T21:50:32.789Z,20.69
2022-09-01T21:53:01.262Z,20.65
2022-09-01T21:55:30.007Z,20.62
2022-09-01T21:57:58.619Z,20.56
2022-09-01T22:00:30.849Z,20.48
2022-09-01T22:03:01.850Z,20.42
2022-09-01T22:05:33.175Z,20.36
2022-09-01T22:08:02.542Z,20.29
2022-09-01T22:10:31.939Z,20.25
2022-09-01T22:13:03.849Z,20.21
2022-09-01T22:15:32.671Z,20.16
2022-09-01T22:18:02.304Z,20.12
2022-09-01T22:20:32.018Z,20.05
2022-09-01T22:23:02.004Z,20.00
2022-09-01T22:25:32.833Z,19.95
2022-09-01T22:28:02.735Z,19.90
2022-09-01T22:30:31.547Z,19.87
2022-09-01T22:33:02.027Z,19.83
2022-09-01T22:35:30.694Z,19.79
2022-09-01T22:37:59.287Z,19.72
2022-09-01T22:40:27.736Z,19.65
2022-09-01T22:42:56.303Z,19.58
2022-09-01T22:45:24.586Z,19.51
2022-09-01T22:47:52.944Z,19.44
2022-09-01T22:50:22.713Z,19.37
2022-09-01T22:52:50.980Z,19.31
2022-09-01T22:55:19.647Z,19.25
2022-09-01T22:57:48.219Z,19.20
2022-09-01T23:00:17.091Z,19.14
2022-09-01T23:02:45.955Z,19.09
2022-09-01T23:05:14.328Z,19.06
2022-09-01T23:07:44.064Z,19.02
2022-09-01T23:10:12.780Z,18.97
2022-09-01T23:12:41.046Z,18.95
2022-09-01T23:15:10.945Z,18.89
2022-09-01T23:17:39.766Z,18.87
2022-09-01T23:20:12.895Z,18.85
2022-09-01T23:22:43.952Z,18.81
2022-09-01T23:25:14.793Z,18.78
2022-09-01T23:27:44.144Z,18.76
2022-09-01T23:30:16.095Z,18.74
2022-09-01T23:32:44.697Z,18.71
2022-09-01T23:35:13.958Z,18.68
2022-09-01T23:37:46.140Z,18.66
2022-09-01T23:40:14.575Z,18.64
2022-09-01T23:42:43.215Z,18.64
2022-09-01T23:45:12.707Z,18.60
2022-09-01T23:47:41.123Z,18.55
2022-09-01T23:50:10.699Z,18.53
2022-09-01T23:52:39.418Z,18.52
2022-09-01T23:55:10.553Z,18.46
2022-09-01T23:57:38.965Z,18.42
